Terminal Aerodrome Forecast
Issued by NWS

Home | Current Version | Previous Version | Text Only | Print | Product List | Glossary On
Versions: 1 2 3 4 5 6 7 8 9 10 11 12 13 14 15 16 17 18 19 20 21 22
000
FTUS42 KILM 211720
TAFCRE
TAF
KCRE 211720Z 2118/2218 11007KT P6SM BKN035
     FM220100 17004KT P6SM SCT080
     FM221100 30004KT 3SM BR SCT060
     FM221400 VRB03KT P6SM SCT040=

USA.gov is the U.S. government's official web portal to all federal, state and local government web resources and services.